Terminal Aerodrome Forecast
Issued by NWS

Home | Current Version | Previous Version | Text Only | Print | Product List | Glossary On
Versions: 1 2 3 4 5 6 7 8 9 10 11 12 13 14 15 16
000
FTUS45 KRIW 250530
TAFCPR
TAF
KCPR 250530Z 2506/2606 03015KT P6SM VCSH BKN050
     FM250900 05010KT P6SM -SHRA SCT024 OVC035
      TEMPO 2509/2513 BKN024
     FM251300 05008KT P6SM -SHRA OVC024
     FM251700 08007KT P6SM SCT025 OVC040
     FM260000 09009KT P6SM VCSH SCT030 OVC050=

USA.gov is the U.S. government's official web portal to all federal, state and local government web resources and services.